Rainbow (RB1) Station Data

Red Flag Warning: No
Fire Weather Zone: 250
SDGE Region: North East
Lat/Lon: 33.419/-117.144

Observations

Time Wind Speed/Gust Temp(F) RH Fuel Moist Fuel Temp(F) Dewpt(F) Tmax(F) Tmin(F) Accum Precip 10-min Precip SL Press(mb)
6/27 5:00pm 168 8 G 12 83° 28% - - 46° 91.8° 65.3° - - -
6/27 4:50pm 172 8 G 12 83° 28% - - 47° 91.8° 65.3° - - -
6/27 4:40pm 182 8 G 13 84° 27% - - 46° 91.8° 65.3° - - -
6/27 4:30pm 177 8 G 15 85° 25% - - 45° 91.8° 65.3° - - -
6/27 4:20pm 183 8 G 14 85° 23% - - 43° 91.8° 65.3° - - -
6/27 4:10pm 187 8 G 13 85° 23% - - 43° 91.8° 65.3° - - -
6/27 4:00pm 192 7 G 11 86° 23% - - 43° 91.8° 65.3° - - -
6/27 3:50pm 206 7 G 14 86° 22% - - 42° 91.8° 65.3° - - -
6/27 3:40pm 213 9 G 14 86° 20% - - 40° 91.8° 65.3° - - -
6/27 3:30pm 200 9 G 17 87° 21% - - 43° 91.8° 65.3° - - -
6/27 3:20pm 202 9 G 17 87° 21% - - 43° 91.8° 65.3° - - -
6/27 3:10pm 212 9 G 14 88° 19% - - 40° 91.8° 65.3° - - -
6/27 3:00pm 210 10 G 16 88° 17% - - 37° 91.8° 65.3° - - -
6/27 2:50pm 194 10 G 16 88° 18% - - 39° 91.8° 65.3° - - -
6/27 2:40pm 190 11 G 17 88° 18% - - 39° 91.8° 65.3° - - -
6/27 2:30pm 206 11 G 17 88° 16% - - 37° 91.8° 65.3° - - -
6/27 2:20pm 198 11 G 16 89° 17% - - 38° 91.8° 65.3° - - -
6/27 2:10pm 201 11 G 17 89° 15% - - 35° 91.8° 65.3° - - -
6/27 2:00pm 194 10 G 16 90° 14% - - 33° 91.8° 65.3° - - -
6/27 1:50pm 204 10 G 15 90° 11% - - 29° 91.8° 65.3° - - -
6/27 1:40pm 197 10 G 15 90° 12% - - 30° 91.8° 65.3° - - -
6/27 1:30pm 214 10 G 14 90° 13% - - 33° 91.8° 65.3° - - -
6/27 1:20pm 213 11 G 16 90° 14% - - 33° 91.8° 65.3° - - -
6/27 1:10pm 209 10 G 15 90° 14% - - 34° 91.8° 65.3° - - -
6/27 1:00pm 210 11 G 16 91° 13% - - 34° 91.8° 65.3° - - -
6/27 12:50pm 206 11 G 16 91° 13% - - 34° 91.8° 65.3° - - -
6/27 12:40pm 209 10 G 16 91° 14% - - 35° 91.8° 65.3° - - -
6/27 12:30pm 198 9 G 13 91° 14% - - 36° 91.8° 65.3° - - -
6/27 12:20pm 192 9 G 13 91° 13% - - 33° 91.8° 65.3° - - -
6/27 12:10pm 208 7 G 12 91° 12% - - 31° 91.8° 65.3° - - -
6/27 12:00pm 200 7 G 12 91° 12% - - 32° 91.3° 65.3° - - -
6/27 11:50am 183 8 G 11 90° 12% - - 31° 90.6° 65.3° - - -
6/27 11:40am 192 7 G 12 90° 11% - - 29° 90.3° 65.3° - - -
6/27 11:30am 195 7 G 10 89° 11% - - 29° 89.8° 65.3° - - -
6/27 11:20am 212 7 G 11 89° 11% - - 28° 89.4° 65.3° - - -
6/27 11:10am 216 7 G 11 88° 11% - - 26° 88.5° 65.3° - - -
6/27 11:00am 223 6 G 10 88° 11% - - 27° 88.1° 65.3° - - -
6/27 10:50am 190 5 G 9 87° 12% - - 28° 87.8° 65.3° - - -
6/27 10:40am 185 5 G 9 86° 13% - - 29° 87° 65.3° - - -
6/27 10:30am 207 5 G 9 86° 13% - - 30° 86.5° 65.3° - - -
6/27 10:20am 213 5 G 9 86° 13% - - 29° 86.2° 65.3° - - -
6/27 10:10am 183 5 G 8 85° 13% - - 29° 85.7° 65.3° - - -
6/27 10:00am 189 5 G 8 84° 15% - - 32° 84.8° 65.3° - - -
6/27 9:50am 198 5 G 8 84° 15% - - 31° 84.6° 65.3° - - -
6/27 9:40am 193 5 G 7 83° 16% - - 33° 84.6° 65.3° - - -
6/27 9:30am 214 6 G 9 83° 16% - - 32° 84.6° 65.3° - - -
6/27 9:20am 202 4 G 8 83° 17% - - 33° 84.6° 65.3° - - -
6/27 9:10am 209 4 G 6 83° 17% - - 34° 84.6° 65.3° - - -
6/27 9:00am 219 1 G 4 84° 17% - - 35° 84.6° 65.3° - - -
6/27 8:50am 209 0 G 2 84° 15% - - 31° 84.4° 65.3° - - -
6/27 8:40am 175 1 G 2 82° 17% - - 32° 83.2° 65.3° - - -
6/27 8:30am 25 2 G 4 80° 18% - - 33° 80.8° 65.3° - - -
6/27 8:20am 13 4 G 7 78° 20% - - 33° 78.7° 65.3° - - -
6/27 8:10am 14 5 G 7 77° 20% - - 33° 77.4° 65.3° - - -
6/27 8:00am 14 5 G 7 76° 21% - - 32° 76.3° 65.3° - - -
6/27 7:50am 11 4 G 8 74° 22% - - 33° 74.9° 65.3° - - -
6/27 7:40am 17 5 G 7 73° 23% - - 33° 73.3° 65.3° - - -
6/27 7:30am 13 5 G 7 72° 27% - - 36° 72.4° 65.3° - - -
6/27 7:20am 25 5 G 7 70° 28% - - 35° 70.7° 65.3° - - -
6/27 7:10am 26 5 G 7 69° 29% - - 35° 70.6° 65.3° - - -
6/27 7:00am 25 4 G 7 68° 29% - - 35° 70.6° 65.3° - - -
6/27 6:50am 42 3 G 6 67° 30% - - 34° 70.6° 65.3° - - -
6/27 6:40am 41 3 G 6 67° 29% - - 34° 70.6° 65.3° - - -
6/27 6:30am 37 4 G 5 67° 29% - - 33° 70.6° 65.3° - - -
6/27 6:20am 37 4 G 6 67° 29% - - 33° 70.6° 65.3° - - -
6/27 6:10am 36 3 G 7 67° 29% - - 34° 70.6° 65.3° - - -
6/27 6:00am 15 4 G 6 67° 30% - - 34° 70.6° 65.3° - - -
6/27 5:50am 29 4 G 6 67° 31% - - 35° 70.6° 65.3° - - -
6/27 5:40am 44 4 G 6 66° 33% - - 36° 70.6° 65.3° - - -
6/27 5:30am 45 3 G 5 66° 35% - - 38° 70.6° 65.3° - - -
6/27 5:20am 35 4 G 5 66° 35% - - 38° 70.6° 65.3° - - -
6/27 5:10am 46 3 G 5 66° 32% - - 35° 70.6° 65.3° - - -
6/27 5:00am 53 2 G 4 66° 31% - - 34° 70.6° 65.3° - - -
6/27 4:50am 71 2 G 3 66° 31% - - 35° 70.6° 65.4° - - -
6/27 4:40am 38 2 G 4 66° 32% - - 35° 70.6° 65.4° - - -
6/27 4:30am 21 2 G 3 66° 32% - - 36° 70.6° 65.5° - - -
6/27 4:20am 41 2 G 4 67° 30% - - 35° 70.6° 65.6° - - -
6/27 4:10am 26 2 G 3 67° 31% - - 35° 70.6° 65.6° - - -
6/27 4:00am 51 1 G 4 68° 30% - - 35° 70.6° 65.6° - - -
6/27 3:50am 37 2 G 4 67° 31% - - 36° 70.6° 65.6° - - -
6/27 3:40am 46 2 G 4 68° 30% - - 35° 70.6° 65.6° - - -
6/27 3:30am 44 3 G 5 66° 33% - - 36° 70.6° 65.6° - - -
6/27 3:20am 27 2 G 4 67° 34% - - 38° 70.6° 65.6° - - -
6/27 3:10am 52 2 G 3 68° 32% - - 37° 70.6° 66.1° - - -
6/27 3:00am 67 2 G 4 68° 32% - - 37° 70.6° 66.1° - - -
6/27 2:50am 45 2 G 3 67° 34% - - 38° 70.6° 66.1° - - -
6/27 2:40am 30 1 G 3 67° 36% - - 39° 70.6° 66.1° - - -
6/27 2:30am 47 2 G 5 67° 35% - - 39° 70.6° 66.5° - - -
6/27 2:20am 31 2 G 4 69° 33% - - 38° 70.6° 67.1° - - -
6/27 2:10am 35 2 G 2 68° 35% - - 39° 70.6° 67.1° - - -
6/27 2:00am 32 1 G 2 68° 35% - - 39° 70.6° 67.8° - - -
6/27 1:50am 54 2 G 3 68° 35% - - 40° 70.6° 67.9° - - -
6/27 1:40am 73 2 G 4 69° 34% - - 39° 70.6° 67.9° - - -
6/27 1:30am 65 2 G 3 69° 33% - - 39° 70.6° 67.9° - - -
6/27 1:20am 24 3 G 3 68° 35% - - 40° 70.6° 67.9° - - -
6/27 1:10am 38 2 G 3 69° 36% - - 41° 70.6° 68.1° - - -
6/27 1:00am 26 1 G 2 69° 35% - - 41° 70.6° 68.3° - - -
6/27 12:50am 53 2 G 4 70° 34% - - 40° 70.6° 68.3° - - -
6/27 12:40am 47 2 G 3 69° 36% - - 41° 70.6° 68.3° - - -
6/27 12:30am 22 2 G 3 69° 35% - - 40° 70.6° 68.8° - - -
6/27 12:20am 30 2 G 4 69° 37% - - 42° 70.6° 68.8° - - -
6/27 12:10am 32 1 G 3 70° 38% - - 43° 70.6° 68.8° - - -
6/27 12:00am 64 1 G 2 70° 38% - - 43° 94.1° 66.6° - - -
6/26 11:50pm 33 2 G 5 70° 41% - - 45° 94.1° 66.6° - - -
6/26 11:40pm 11 2 G 5 70° 42% - - 46° 94.1° 66.6° - - -
6/26 11:30pm 338 1 G 2 70° 46% - - 48° 94.1° 66.6° - - -
6/26 11:20pm 341 0 G 1 71° 45% - - 49° 94.1° 66.6° - - -
6/26 11:10pm 62 1 G 2 72° 37% - - 45° 94.1° 66.6° - - -
6/26 11:00pm 63 2 G 4 71° 43% - - 47° 94.1° 66.6° - - -
6/26 10:50pm 14 3 G 6 70° 47% - - 49° 94.1° 66.6° - - -
6/26 10:40pm 26 1 G 2 70° 46% - - 49° 94.1° 66.6° - - -
6/26 10:30pm 10 1 G 2 71° 46% - - 49° 94.1° 66.6° - - -
6/26 10:20pm 65 2 G 3 71° 44% - - 48° 94.1° 66.6° - - -
6/26 10:10pm 71 2 G 4 71° 43% - - 47° 94.1° 66.6° - - -
6/26 10:00pm 48 2 G 4 72° 48% - - 51° 94.1° 66.6° - - -
6/26 9:50pm 55 2 G 3 71° 51% - - 52° 94.1° 66.6° - - -
6/26 9:40pm 51 2 G 2 72° 46% - - 50° 94.1° 66.6° - - -
6/26 9:30pm 87 1 G 2 73° 46% - - 51° 94.1° 66.6° - - -
6/26 9:20pm 75 1 G 2 73° 44% - - 50° 94.1° 66.6° - - -
6/26 9:10pm 70 2 G 3 73° 45% - - 51° 94.1° 66.6° - - -
6/26 9:00pm 83 2 G 3 74° 46% - - 52° 94.1° 66.6° - - -
6/26 8:50pm 72 2 G 2 75° 46% - - 53° 94.1° 66.6° - - -
6/26 8:40pm 36 1 G 2 77° 38% - - 50° 94.1° 66.6° - - -
6/26 8:30pm 72 1 G 1 78° 36% - - 49° 94.1° 66.6° - - -
6/26 8:20pm 332 0 G 1 79° 36% - - 50° 94.1° 66.6° - - -
6/26 8:10pm 195 2 G 3 80° 33% - - 48° 94.1° 66.6° - - -
6/26 8:00pm 219 2 G 4 81° 31% - - 48° 94.1° 66.6° - - -
6/26 7:50pm 230 2 G 3 82° 31% - - 48° 94.1° 66.6° - - -
6/26 7:40pm 242 4 G 5 83° 29% - - 47° 94.1° 66.6° - - -
6/26 7:30pm 245 3 G 4 84° 28% - - 47° 94.1° 66.6° - - -
6/26 7:20pm 219 4 G 6 85° 27% - - 47° 94.1° 66.6° - - -
6/26 7:10pm 210 4 G 6 86° 27% - - 48° 94.1° 66.6° - - -
6/26 7:00pm 209 5 G 7 86° 27% - - 49° 94.1° 66.6° - - -
6/26 6:50pm 214 5 G 7 87° 27% - - 49° 94.1° 66.6° - - -
6/26 6:40pm 207 5 G 7 87° 27% - - 50° 94.1° 66.6° - - -
6/26 6:30pm 206 5 G 7 88° 27% - - 50° 94.1° 66.6° - - -
6/26 6:20pm 191 5 G 8 88° 26% - - 49° 94.1° 66.6° - - -
6/26 6:10pm 193 6 G 9 89° 26% - - 49° 94.1° 66.6° - - -
6/26 6:00pm 189 7 G 9 89° 25% - - 49° 94.1° 66.6° - - -
6/26 5:50pm 187 6 G 9 90° 24% - - 48° 94.1° 66.6° - - -
6/26 5:40pm 181 7 G 9 90° 24% - - 49° 94.1° 66.6° - - -
6/26 5:30pm 193 6 G 11 91° 24% - - 49° 94.1° 66.6° - - -
6/26 5:20pm 201 5 G 8 91° 24% - - 49° 94.1° 66.6° - - -
6/26 5:10pm 207 5 G 9 91° 24% - - 50° 94.1° 66.6° - - -
6/26 5:00pm 198 6 G 9 92° 25% - - 51° 94.1° 66.6° - - -
6/26 4:50pm 197 7 G 10 92° 25% - - 51° 94.1° 66.6° - - -
6/26 4:40pm 203 7 G 11 92° 25% - - 51° 94.1° 66.6° - - -
6/26 4:30pm 190 8 G 12 92° 25% - - 51° 94.1° 66.6° - - -
6/26 4:20pm 195 8 G 12 93° 25% - - 51° 94.1° 66.6° - - -
6/26 4:10pm 206 7 G 12 93° 23% - - 50° 94° 66.6° - - -
6/26 4:00pm 201 6 G 10 93° 23% - - 50° 93.9° 66.6° - - -
6/26 3:50pm 212 6 G 10 93° 23% - - 50° 93.9° 66.6° - - -
6/26 3:40pm 205 7 G 10 93° 23% - - 50° 93.9° 66.6° - - -
6/26 3:30pm 204 7 G 11 93° 23% - - 49° 93.6° 66.6° - - -
6/26 3:20pm 202 7 G 11 93° 23% - - 50° 93.4° 66.6° - - -
6/26 3:10pm 194 7 G 12 93° 24% - - 50° 93.3° 66.6° - - -
6/26 3:00pm 201 6 G 12 92° 24% - - 50° 93° 66.6° - - -
6/26 2:50pm 195 8 G 12 92° 25% - - 51° 93° 66.6° - - -
6/26 2:40pm 196 8 G 12 92° 25% - - 51° 93° 66.6° - - -
6/26 2:30pm 198 8 G 12 92° 24% - - 50° 93° 66.6° - - -
6/26 2:20pm 199 7 G 12 92° 24% - - 50° 93° 66.6° - - -
6/26 2:10pm 197 7 G 11 92° 23% - - 49° 93° 66.6° - - -
6/26 2:00pm 190 8 G 13 92° 23% - - 48° 93° 66.6° - - -
6/26 1:50pm 186 8 G 12 92° 22% - - 48° 93° 66.6° - - -
6/26 1:40pm 193 8 G 12 92° 22% - - 48° 93° 66.6° - - -
6/26 1:30pm 202 8 G 11 92° 23% - - 49° 93° 66.6° - - -
6/26 1:20pm 199 8 G 13 92° 23% - - 49° 93° 66.6° - - -
6/26 1:10pm 189 9 G 13 92° 22% - - 48° 93° 66.6° - - -
6/26 1:00pm 192 8 G 12 92° 22% - - 47° 93° 66.6° - - -
6/26 12:50pm 205 7 G 10 92° 21% - - 46° 93° 66.6° - - -
6/26 12:40pm 216 7 G 14 92° 22% - - 48° 93° 66.6° - - -
6/26 12:30pm 199 7 G 12 91° 22% - - 47° 93° 66.6° - - -
6/26 12:20pm 207 7 G 10 91° 22% - - 47° 93° 66.6° - - -
6/26 12:10pm 200 8 G 12 91° 23% - - 48° 93° 66.6° - - -
6/26 12:00pm 195 8 G 14 91° 24% - - 50° 93° 66.6° - - -
6/26 11:50am 202 8 G 13 92° 24% - - 49° 93° 66.6° - - -
6/26 11:40am 193 8 G 11 92° 23% - - 49° 93° 66.6° - - -
6/26 11:30am 183 8 G 12 92° 23% - - 49° 93° 66.6° - - -
6/26 11:20am 198 6 G 13 93° 20% - - 46° 93° 66.6° - - -
6/26 11:10am 199 5 G 9 92° 20% - - 45° 92.7° 66.6° - - -
6/26 11:00am 216 6 G 9 92° 20% - - 45° 92.6° 66.6° - - -
6/26 10:50am 204 5 G 9 91° 20% - - 45° 91.7° 66.6° - - -
6/26 10:40am 200 5 G 8 91° 20% - - 45° 91° 66.6° - - -
6/26 10:30am 208 6 G 10 90° 19% - - 43° 90.6° 66.6° - - -
6/26 10:20am 231 6 G 9 90° 21% - - 45° 90.6° 66.6° - - -
6/26 10:10am 215 5 G 8 90° 22% - - 46° 90.6° 66.6° - - -
6/26 10:00am 187 4 G 6 89° 23% - - 46° 89.9° 66.6° - - -
6/26 9:50am 195 4 G 5 89° 22% - - 45° 89.5° 66.6° - - -
6/26 9:40am 189 4 G 6 88° 22% - - 44° 89.5° 66.6° - - -
6/26 9:30am 198 4 G 6 88° 23% - - 45° 89.5° 66.6° - - -
6/26 9:20am 210 5 G 8 88° 23% - - 45° 89.5° 66.6° - - -
6/26 9:10am 199 4 G 6 88° 22% - - 44° 89.5° 66.6° - - -
6/26 9:00am 177 3 G 5 89° 21% - - 44° 89.5° 66.6° - - -
6/26 8:50am 187 1 G 2 89° 22% - - 46° 89.5° 66.6° - - -
6/26 8:40am 175 1 G 2 88° 22% - - 45° 88.8° 66.6° - - -
6/26 8:30am 12 3 G 6 87° 23% - - 45° 87.5° 66.6° - - -
6/26 8:20am 5 3 G 6 87° 22% - - 44° 87.5° 66.6° - - -
6/26 8:10am 20 4 G 9 86° 22% - - 43° 86.8° 66.6° - - -
6/26 8:00am 6 6 G 11 85° 21% - - 41° 85.3° 66.6° - - -
6/26 7:50am 9 10 G 15 84° 22% - - 41° 84.4° 66.6° - - -
6/26 7:40am 22 6 G 12 83° 25% - - 43° 83.1° 66.6° - - -
6/26 7:30am 16 8 G 13 82° 29% - - 46° 82.4° 66.6° - - -
6/26 7:20am 21 6 G 12 80° 31% - - 47° 81.2° 66.6° - - -
6/26 7:10am 22 7 G 13 80° 30% - - 45° 80.1° 66.6° - - -
6/26 7:00am 31 6 G 10 79° 29% - - 44° 80° 66.6° - - -
6/26 6:50am 23 6 G 12 79° 27% - - 43° 80° 66.6° - - -
6/26 6:40am 20 7 G 11 80° 25% - - 40° 80° 66.6° - - -
6/26 6:30am 39 5 G 12 79° 23% - - 39° 79.6° 66.6° - - -
6/26 6:20am 33 4 G 8 79° 23% - - 38° 79.1° 66.6° - - -
6/26 6:10am 50 3 G 6 79° 23% - - 38° 79° 66.6° - - -
6/26 6:00am 60 3 G 7 78° 23% - - 38° 79° 66.6° - - -